sensor_id;sensor_type;location;lat;lon;timestamp;P1;durP1;ratioP1;P2;durP2;ratioP2
35675;SDS011;21790;42.668;23.298;2022-10-16T00:04:30;14.02;;;8.18;;
35675;SDS011;21790;42.668;23.298;2022-10-16T00:06:55;23.00;;;9.20;;
35675;SDS011;21790;42.668;23.298;2022-10-16T00:11:54;16.73;;;8.18;;
35675;SDS011;21790;42.668;23.298;2022-10-16T00:17:17;16.48;;;7.72;;
35675;SDS011;21790;42.668;23.298;2022-10-16T00:19:46;14.82;;;8.45;;
35675;SDS011;21790;42.668;23.298;2022-10-16T00:24:56;16.10;;;7.95;;
35675;SDS011;21790;42.668;23.298;2022-10-16T00:27:22;15.98;;;8.00;;
35675;SDS011;21790;42.668;23.298;2022-10-16T00:32:42;21.13;;;8.70;;
35675;SDS011;21790;42.668;23.298;2022-10-16T00:35:08;15.95;;;8.07;;
35675;SDS011;21790;42.668;23.298;2022-10-16T00:37:45;15.80;;;8.07;;
35675;SDS011;21790;42.668;23.298;2022-10-16T00:51:34;14.55;;;7.45;;
35675;SDS011;21790;42.668;23.298;2022-10-16T00:54:08;13.18;;;6.63;;
35675;SDS011;21790;42.668;23.298;2022-10-16T00:56:51;13.70;;;6.93;;
35675;SDS011;21790;42.668;23.298;2022-10-16T00:59:27;14.10;;;6.57;;
35675;SDS011;21790;42.668;23.298;2022-10-16T01:02:05;12.90;;;6.97;;
35675;SDS011;21790;42.668;23.298;2022-10-16T01:10:41;18.38;;;8.85;;
35675;SDS011;21790;42.668;23.298;2022-10-16T01:38:59;17.58;;;8.43;;
35675;SDS011;21790;42.668;23.298;2022-10-16T01:41:47;15.40;;;7.05;;
35675;SDS011;21790;42.668;23.298;2022-10-16T01:47:23;18.42;;;8.15;;
35675;SDS011;21790;42.668;23.298;2022-10-16T01:53:02;16.33;;;8.43;;
35675;SDS011;21790;42.668;23.298;2022-10-16T01:55:45;15.82;;;7.88;;
35675;SDS011;21790;42.668;23.298;2022-10-16T02:22:30;14.65;;;7.72;;
35675;SDS011;21790;42.668;23.298;2022-10-16T02:32:27;14.93;;;7.68;;
35675;SDS011;21790;42.668;23.298;2022-10-16T02:38:26;13.68;;;8.02;;
35675;SDS011;21790;42.668;23.298;2022-10-16T02:41:06;15.10;;;7.88;;
35675;SDS011;21790;42.668;23.298;2022-10-16T02:43:33;12.20;;;7.30;;
35675;SDS011;21790;42.668;23.298;2022-10-16T04:18:26;12.73;;;5.35;;
35675;SDS011;21790;42.668;23.298;2022-10-16T04:20:56;10.63;;;6.10;;
35675;SDS011;21790;42.668;23.298;2022-10-16T04:23:26;21.48;;;6.47;;
35675;SDS011;21790;42.668;23.298;2022-10-16T04:31:23;10.68;;;5.72;;
35675;SDS011;21790;42.668;23.298;2022-10-16T04:33:54;14.18;;;5.88;;
35675;SDS011;21790;42.668;23.298;2022-10-16T04:36:20;22.73;;;6.00;;
35675;SDS011;21790;42.668;23.298;2022-10-16T04:50:40;11.32;;;6.63;;
35675;SDS011;21790;42.668;23.298;2022-10-16T04:53:17;22.80;;;7.20;;
35675;SDS011;21790;42.668;23.298;2022-10-16T04:59:00;14.13;;;6.70;;
35675;SDS011;21790;42.668;23.298;2022-10-16T05:01:26;17.90;;;6.80;;
35675;SDS011;21790;42.668;23.298;2022-10-16T05:16:09;19.42;;;8.27;;
35675;SDS011;21790;42.668;23.298;2022-10-16T05:22:11;12.63;;;6.75;;
35675;SDS011;21790;42.668;23.298;2022-10-16T05:30:56;16.95;;;6.95;;
35675;SDS011;21790;42.668;23.298;2022-10-16T05:35:56;14.10;;;6.65;;
35675;SDS011;21790;42.668;23.298;2022-10-16T05:38:22;20.58;;;7.47;;
35675;SDS011;21790;42.668;23.298;2022-10-16T05:43:45;17.75;;;7.38;;
35675;SDS011;21790;42.668;23.298;2022-10-16T05:46:24;17.23;;;7.38;;
35675;SDS011;21790;42.668;23.298;2022-10-16T05:48:51;15.20;;;7.63;;
35675;SDS011;21790;42.668;23.298;2022-10-16T05:53:53;16.40;;;8.10;;
35675;SDS011;21790;42.668;23.298;2022-10-16T05:56:18;15.18;;;7.75;;
35675;SDS011;21790;42.668;23.298;2022-10-16T06:02:08;16.42;;;7.97;;
35675;SDS011;21790;42.668;23.298;2022-10-16T06:28:16;12.50;;;7.35;;
35675;SDS011;21790;42.668;23.298;2022-10-16T06:30:42;16.77;;;7.93;;
35675;SDS011;21790;42.668;23.298;2022-10-16T16:06:03;6.30;;;2.72;;
35675;SDS011;21790;42.668;23.298;2022-10-16T16:08:32;10.82;;;4.38;;
35675;SDS011;21790;42.668;23.298;2022-10-16T16:11:05;6.43;;;3.00;;
35675;SDS011;21790;42.668;23.298;2022-10-16T16:13:35;13.55;;;4.25;;
35675;SDS011;21790;42.668;23.298;2022-10-16T16:16:06;13.70;;;4.47;;
35675;SDS011;21790;42.668;23.298;2022-10-16T16:18:35;10.05;;;4.63;;
35675;SDS011;21790;42.668;23.298;2022-10-16T16:21:01;17.60;;;5.97;;
35675;SDS011;21790;42.668;23.298;2022-10-16T16:30:16;15.80;;;5.50;;
35675;SDS011;21790;42.668;23.298;2022-10-16T16:35:57;17.52;;;6.53;;
35675;SDS011;21790;42.668;23.298;2022-10-16T16:46:40;18.25;;;6.93;;
35675;SDS011;21790;42.668;23.298;2022-10-16T16:49:08;13.18;;;6.43;;
35675;SDS011;21790;42.668;23.298;2022-10-16T16:51:36;15.48;;;5.80;;
35675;SDS011;21790;42.668;23.298;2022-10-16T16:54:02;17.25;;;5.90;;
35675;SDS011;21790;42.668;23.298;2022-10-16T16:56:32;15.90;;;8.10;;
35675;SDS011;21790;42.668;23.298;2022-10-16T16:59:03;15.73;;;8.82;;
35675;SDS011;21790;42.668;23.298;2022-10-16T17:01:29;14.73;;;7.55;;
35675;SDS011;21790;42.668;23.298;2022-10-16T17:03:56;22.33;;;7.10;;
35675;SDS011;21790;42.668;23.298;2022-10-16T17:16:40;16.13;;;6.40;;
35675;SDS011;21790;42.668;23.298;2022-10-16T17:19:11;11.93;;;6.82;;
35675;SDS011;21790;42.668;23.298;2022-10-16T17:21:42;14.45;;;6.55;;
35675;SDS011;21790;42.668;23.298;2022-10-16T17:27:34;24.05;;;8.40;;
35675;SDS011;21790;42.668;23.298;2022-10-16T17:30:02;18.88;;;7.80;;
35675;SDS011;21790;42.668;23.298;2022-10-16T17:32:33;16.92;;;8.55;;
35675;SDS011;21790;42.668;23.298;2022-10-16T17:38:25;20.92;;;8.57;;
35675;SDS011;21790;42.668;23.298;2022-10-16T17:53:23;23.48;;;9.38;;
35675;SDS011;21790;42.668;23.298;2022-10-16T17:55:50;25.75;;;9.32;;
35675;SDS011;21790;42.668;23.298;2022-10-16T18:01:10;23.65;;;9.77;;
35675;SDS011;21790;42.668;23.298;2022-10-16T18:03:41;34.83;;;11.60;;
35675;SDS011;21790;42.668;23.298;2022-10-16T18:06:07;30.98;;;12.20;;
35675;SDS011;21790;42.668;23.298;2022-10-16T18:08:32;30.80;;;10.00;;
35675;SDS011;21790;42.668;23.298;2022-10-16T18:11:01;27.98;;;11.40;;
35675;SDS011;21790;42.668;23.298;2022-10-16T18:13:27;25.83;;;9.80;;
35675;SDS011;21790;42.668;23.298;2022-10-16T18:16:00;26.33;;;10.00;;
35675;SDS011;21790;42.668;23.298;2022-10-16T18:18:30;23.73;;;10.40;;
35675;SDS011;21790;42.668;23.298;2022-10-16T18:20:56;26.90;;;8.77;;
35675;SDS011;21790;42.668;23.298;2022-10-16T18:23:24;17.92;;;8.57;;
35675;SDS011;21790;42.668;23.298;2022-10-16T18:25:49;18.33;;;7.80;;
35675;SDS011;21790;42.668;23.298;2022-10-16T18:28:15;14.63;;;6.70;;
35675;SDS011;21790;42.668;23.298;2022-10-16T18:30:40;18.60;;;6.72;;
35675;SDS011;21790;42.668;23.298;2022-10-16T18:33:06;10.70;;;6.15;;
35675;SDS011;21790;42.668;23.298;2022-10-16T18:35:34;21.30;;;9.32;;
35675;SDS011;21790;42.668;23.298;2022-10-16T18:38:03;20.67;;;9.40;;
35675;SDS011;21790;42.668;23.298;2022-10-16T18:40:28;21.83;;;8.95;;
35675;SDS011;21790;42.668;23.298;2022-10-16T18:42:54;26.73;;;11.20;;
35675;SDS011;21790;42.668;23.298;2022-10-16T18:45:19;26.75;;;11.07;;
35675;SDS011;21790;42.668;23.298;2022-10-16T18:47:45;23.25;;;10.85;;
35675;SDS011;21790;42.668;23.298;2022-10-16T18:50:11;34.72;;;15.73;;
35675;SDS011;21790;42.668;23.298;2022-10-16T18:52:37;49.17;;;21.75;;
35675;SDS011;21790;42.668;23.298;2022-10-16T18:55:04;24.23;;;12.32;;
35675;SDS011;21790;42.668;23.298;2022-10-16T18:57:33;28.33;;;10.02;;
35675;SDS011;21790;42.668;23.298;2022-10-16T18:59:59;23.25;;;9.93;;
35675;SDS011;21790;42.668;23.298;2022-10-16T19:02:24;27.83;;;10.60;;
35675;SDS011;21790;42.668;23.298;2022-10-16T19:04:51;25.92;;;10.27;;
35675;SDS011;21790;42.668;23.298;2022-10-16T19:07:16;23.80;;;10.25;;
35675;SDS011;21790;42.668;23.298;2022-10-16T19:09:42;23.33;;;9.48;;
35675;SDS011;21790;42.668;23.298;2022-10-16T19:12:07;25.63;;;10.10;;
35675;SDS011;21790;42.668;23.298;2022-10-16T19:14:34;24.95;;;9.65;;
35675;SDS011;21790;42.668;23.298;2022-10-16T19:17:02;20.38;;;9.25;;
35675;SDS011;21790;42.668;23.298;2022-10-16T19:19:28;26.90;;;10.77;;
35675;SDS011;21790;42.668;23.298;2022-10-16T19:21:53;25.25;;;10.27;;
35675;SDS011;21790;42.668;23.298;2022-10-16T19:24:36;25.35;;;11.18;;
35675;SDS011;21790;42.668;23.298;2022-10-16T19:27:03;25.30;;;12.57;;
35675;SDS011;21790;42.668;23.298;2022-10-16T19:29:29;26.98;;;12.30;;
35675;SDS011;21790;42.668;23.298;2022-10-16T19:31:55;23.75;;;11.18;;
35675;SDS011;21790;42.668;23.298;2022-10-16T19:34:21;27.58;;;10.15;;
35675;SDS011;21790;42.668;23.298;2022-10-16T19:36:46;27.23;;;10.20;;
35675;SDS011;21790;42.668;23.298;2022-10-16T19:39:16;18.65;;;9.57;;
35675;SDS011;21790;42.668;23.298;2022-10-16T19:41:42;24.77;;;10.68;;
35675;SDS011;21790;42.668;23.298;2022-10-16T19:44:09;26.83;;;10.75;;
35675;SDS011;21790;42.668;23.298;2022-10-16T19:46:39;22.90;;;10.13;;
35675;SDS011;21790;42.668;23.298;2022-10-16T19:49:08;24.70;;;9.55;;
35675;SDS011;21790;42.668;23.298;2022-10-16T19:51:36;26.73;;;11.30;;
35675;SDS011;21790;42.668;23.298;2022-10-16T19:54:10;30.90;;;11.18;;
35675;SDS011;21790;42.668;23.298;2022-10-16T19:56:37;28.75;;;11.32;;
35675;SDS011;21790;42.668;23.298;2022-10-16T19:59:03;19.38;;;9.35;;
35675;SDS011;21790;42.668;23.298;2022-10-16T20:01:31;14.15;;;7.32;;
35675;SDS011;21790;42.668;23.298;2022-10-16T20:03:57;27.45;;;9.95;;
35675;SDS011;21790;42.668;23.298;2022-10-16T20:06:25;26.90;;;10.52;;
35675;SDS011;21790;42.668;23.298;2022-10-16T20:08:51;17.48;;;8.45;;
35675;SDS011;21790;42.668;23.298;2022-10-16T20:11:20;15.05;;;7.63;;
35675;SDS011;21790;42.668;23.298;2022-10-16T20:13:48;25.73;;;11.35;;
35675;SDS011;21790;42.668;23.298;2022-10-16T20:16:14;25.30;;;11.15;;
35675;SDS011;21790;42.668;23.298;2022-10-16T20:18:43;23.77;;;10.85;;
35675;SDS011;21790;42.668;23.298;2022-10-16T20:21:14;25.45;;;9.82;;
35675;SDS011;21790;42.668;23.298;2022-10-16T20:23:41;25.95;;;9.82;;
35675;SDS011;21790;42.668;23.298;2022-10-16T20:26:07;26.23;;;9.70;;
35675;SDS011;21790;42.668;23.298;2022-10-16T20:28:37;23.75;;;9.48;;
35675;SDS011;21790;42.668;23.298;2022-10-16T20:31:05;21.65;;;9.60;;
35675;SDS011;21790;42.668;23.298;2022-10-16T20:33:32;18.77;;;8.45;;
35675;SDS011;21790;42.668;23.298;2022-10-16T20:35:57;23.15;;;8.30;;
35675;SDS011;21790;42.668;23.298;2022-10-16T20:38:23;20.45;;;8.35;;
35675;SDS011;21790;42.668;23.298;2022-10-16T20:40:50;17.45;;;8.65;;
35675;SDS011;21790;42.668;23.298;2022-10-16T20:43:16;19.05;;;9.07;;
35675;SDS011;21790;42.668;23.298;2022-10-16T20:45:43;21.95;;;8.95;;
35675;SDS011;21790;42.668;23.298;2022-10-16T20:48:10;18.10;;;7.90;;
35675;SDS011;21790;42.668;23.298;2022-10-16T20:50:37;21.63;;;8.70;;
35675;SDS011;21790;42.668;23.298;2022-10-16T20:53:04;22.63;;;8.27;;
35675;SDS011;21790;42.668;23.298;2022-10-16T20:55:30;23.65;;;9.20;;
35675;SDS011;21790;42.668;23.298;2022-10-16T20:57:59;25.17;;;9.38;;
35675;SDS011;21790;42.668;23.298;2022-10-16T21:00:24;22.15;;;9.05;;
35675;SDS011;21790;42.668;23.298;2022-10-16T21:02:50;24.83;;;8.75;;
35675;SDS011;21790;42.668;23.298;2022-10-16T21:05:17;23.63;;;9.32;;
35675;SDS011;21790;42.668;23.298;2022-10-16T21:07:43;20.73;;;9.45;;
35675;SDS011;21790;42.668;23.298;2022-10-16T21:10:09;20.52;;;8.80;;
35675;SDS011;21790;42.668;23.298;2022-10-16T21:12:34;20.90;;;9.93;;
35675;SDS011;21790;42.668;23.298;2022-10-16T21:15:00;22.52;;;9.18;;
35675;SDS011;21790;42.668;23.298;2022-10-16T21:17:25;25.73;;;10.00;;
35675;SDS011;21790;42.668;23.298;2022-10-16T21:19:51;29.00;;;10.52;;
35675;SDS011;21790;42.668;23.298;2022-10-16T21:22:16;23.63;;;9.98;;
35675;SDS011;21790;42.668;23.298;2022-10-16T21:24:44;20.38;;;10.02;;
35675;SDS011;21790;42.668;23.298;2022-10-16T21:27:10;21.77;;;9.88;;
35675;SDS011;21790;42.668;23.298;2022-10-16T21:29:35;19.05;;;10.45;;
35675;SDS011;21790;42.668;23.298;2022-10-16T21:32:01;26.50;;;11.63;;
35675;SDS011;21790;42.668;23.298;2022-10-16T21:34:29;24.23;;;10.73;;
35675;SDS011;21790;42.668;23.298;2022-10-16T21:36:55;24.85;;;11.35;;
35675;SDS011;21790;42.668;23.298;2022-10-16T21:39:20;29.70;;;11.77;;
35675;SDS011;21790;42.668;23.298;2022-10-16T21:41:47;24.92;;;11.20;;
35675;SDS011;21790;42.668;23.298;2022-10-16T21:44:15;21.83;;;11.20;;
35675;SDS011;21790;42.668;23.298;2022-10-16T21:46:42;32.53;;;11.07;;
35675;SDS011;21790;42.668;23.298;2022-10-16T21:49:10;19.70;;;10.15;;
35675;SDS011;21790;42.668;23.298;2022-10-16T21:51:39;23.40;;;10.90;;
35675;SDS011;21790;42.668;23.298;2022-10-16T21:54:08;24.55;;;11.57;;
35675;SDS011;21790;42.668;23.298;2022-10-16T21:56:36;23.90;;;10.80;;
35675;SDS011;21790;42.668;23.298;2022-10-16T21:59:02;27.08;;;12.38;;
35675;SDS011;21790;42.668;23.298;2022-10-16T22:01:28;21.85;;;10.93;;
35675;SDS011;21790;42.668;23.298;2022-10-16T22:03:54;24.85;;;11.23;;
35675;SDS011;21790;42.668;23.298;2022-10-16T22:06:21;26.70;;;11.27;;
35675;SDS011;21790;42.668;23.298;2022-10-16T22:08:50;20.00;;;10.50;;
35675;SDS011;21790;42.668;23.298;2022-10-16T22:11:17;20.48;;;10.18;;
35675;SDS011;21790;42.668;23.298;2022-10-16T22:13:48;27.42;;;10.60;;
35675;SDS011;21790;42.668;23.298;2022-10-16T22:16:18;23.83;;;10.60;;
35675;SDS011;21790;42.668;23.298;2022-10-16T22:18:44;22.42;;;10.70;;
35675;SDS011;21790;42.668;23.298;2022-10-16T22:21:09;23.40;;;11.23;;
35675;SDS011;21790;42.668;23.298;2022-10-16T22:23:35;19.98;;;9.90;;
35675;SDS011;21790;42.668;23.298;2022-10-16T22:26:02;21.02;;;11.35;;
35675;SDS011;21790;42.668;23.298;2022-10-16T22:28:30;19.92;;;10.05;;
35675;SDS011;21790;42.668;23.298;2022-10-16T22:30:59;21.85;;;9.07;;
35675;SDS011;21790;42.668;23.298;2022-10-16T22:33:26;27.02;;;10.60;;
35675;SDS011;21790;42.668;23.298;2022-10-16T22:35:51;20.33;;;8.73;;
35675;SDS011;21790;42.668;23.298;2022-10-16T22:38:17;17.85;;;9.60;;
35675;SDS011;21790;42.668;23.298;2022-10-16T22:40:42;24.00;;;10.68;;
35675;SDS011;21790;42.668;23.298;2022-10-16T22:43:08;18.55;;;9.80;;
35675;SDS011;21790;42.668;23.298;2022-10-16T22:45:36;21.65;;;9.48;;
35675;SDS011;21790;42.668;23.298;2022-10-16T22:48:02;21.30;;;9.60;;
35675;SDS011;21790;42.668;23.298;2022-10-16T22:50:28;21.33;;;10.18;;
35675;SDS011;21790;42.668;23.298;2022-10-16T22:56:30;20.77;;;8.85;;
35675;SDS011;21790;42.668;23.298;2022-10-16T22:58:55;18.35;;;9.23;;
35675;SDS011;21790;42.668;23.298;2022-10-16T23:01:31;20.15;;;8.88;;
35675;SDS011;21790;42.668;23.298;2022-10-16T23:03:59;17.98;;;8.98;;
35675;SDS011;21790;42.668;23.298;2022-10-16T23:06:25;21.55;;;10.00;;
35675;SDS011;21790;42.668;23.298;2022-10-16T23:08:56;15.13;;;9.27;;
35675;SDS011;21790;42.668;23.298;2022-10-16T23:11:24;21.58;;;9.85;;
35675;SDS011;21790;42.668;23.298;2022-10-16T23:13:51;18.92;;;9.07;;
35675;SDS011;21790;42.668;23.298;2022-10-16T23:16:17;20.13;;;9.10;;
35675;SDS011;21790;42.668;23.298;2022-10-16T23:18:45;19.67;;;9.32;;
35675;SDS011;21790;42.668;23.298;2022-10-16T23:21:12;15.10;;;8.77;;
35675;SDS011;21790;42.668;23.298;2022-10-16T23:23:39;16.92;;;8.60;;
35675;SDS011;21790;42.668;23.298;2022-10-16T23:26:12;19.63;;;9.07;;
35675;SDS011;21790;42.668;23.298;2022-10-16T23:28:42;12.60;;;7.95;;
35675;SDS011;21790;42.668;23.298;2022-10-16T23:31:09;15.73;;;8.25;;
35675;SDS011;21790;42.668;23.298;2022-10-16T23:33:37;16.60;;;8.77;;
35675;SDS011;21790;42.668;23.298;2022-10-16T23:36:07;19.08;;;9.30;;
35675;SDS011;21790;42.668;23.298;2022-10-16T23:42:08;16.00;;;7.75;;
35675;SDS011;21790;42.668;23.298;2022-10-16T23:44:34;18.33;;;9.00;;
35675;SDS011;21790;42.668;23.298;2022-10-16T23:46:59;19.30;;;8.60;;
35675;SDS011;21790;42.668;23.298;2022-10-16T23:49:25;16.77;;;7.85;;
35675;SDS011;21790;42.668;23.298;2022-10-16T23:51:51;18.52;;;9.15;;
35675;SDS011;21790;42.668;23.298;2022-10-16T23:54:16;18.60;;;8.32;;
35675;SDS011;21790;42.668;23.298;2022-10-16T23:56:42;17.38;;;8.55;;
35675;SDS011;21790;42.668;23.298;2022-10-16T23:59:07;15.23;;;8.20;;
